Terminal Aerodrome Forecast
Issued by NWS St Louis, MO

Home | Current Version | Previous Version | Text Only | Print | Product List | Glossary On
Versions: 1 2 3 4 5 6 7 8 9 10 11 12 13 14 15 16 17 18 19 20 21 22 23 24 25 26 27 28 29 30
018
FTUS43 KLSX 170852 AAA
TAFSTL
TAF AMD
KSTL 170852Z 1709/1812 26011KT P6SM OVC025
     FM171000 27008KT P6SM OVC015
     FM171400 27008KT P6SM BKN008
     FM171800 27011KT 6SM BR OVC012
     FM180000 28007KT P6SM BKN015
     FM180600 VRB04KT 5SM BR SCT020=

USA.gov is the U.S. government's official web portal to all federal, state and local government web resources and services.